sensor_id;sensor_type;location;lat;lon;timestamp;temperature;humidity
35258;DHT22;21385;50.878;8.050;2023-07-20T00:00:29;18.40;99.90
35258;DHT22;21385;50.878;8.050;2023-07-20T00:03:13;18.40;99.90
35258;DHT22;21385;50.878;8.050;2023-07-20T00:05:43;18.40;99.90
35258;DHT22;21385;50.878;8.050;2023-07-20T00:08:08;18.40;99.90
35258;DHT22;21385;50.878;8.050;2023-07-20T00:10:34;18.40;99.90
35258;DHT22;21385;50.878;8.050;2023-07-20T00:12:59;18.30;99.90
35258;DHT22;21385;50.878;8.050;2023-07-20T00:15:25;18.30;99.90
35258;DHT22;21385;50.878;8.050;2023-07-20T00:17:50;18.30;99.90
35258;DHT22;21385;50.878;8.050;2023-07-20T00:20:17;18.30;99.90
35258;DHT22;21385;50.878;8.050;2023-07-20T00:22:43;18.30;99.90
35258;DHT22;21385;50.878;8.050;2023-07-20T00:25:09;18.30;99.90
35258;DHT22;21385;50.878;8.050;2023-07-20T00:27:37;18.20;99.90
35258;DHT22;21385;50.878;8.050;2023-07-20T00:30:04;18.10;99.90
35258;DHT22;21385;50.878;8.050;2023-07-20T00:32:29;18.00;99.90
35258;DHT22;21385;50.878;8.050;2023-07-20T00:34:55;17.90;99.90
35258;DHT22;21385;50.878;8.050;2023-07-20T00:37:21;17.90;99.90
35258;DHT22;21385;50.878;8.050;2023-07-20T00:39:46;17.80;99.90
35258;DHT22;21385;50.878;8.050;2023-07-20T00:42:12;17.80;99.90
35258;DHT22;21385;50.878;8.050;2023-07-20T00:44:37;17.80;99.90
35258;DHT22;21385;50.878;8.050;2023-07-20T00:47:04;17.70;99.90
35258;DHT22;21385;50.878;8.050;2023-07-20T00:49:30;17.60;99.90
35258;DHT22;21385;50.878;8.050;2023-07-20T00:51:55;17.60;99.90
35258;DHT22;21385;50.878;8.050;2023-07-20T00:54:21;17.60;99.90
35258;DHT22;21385;50.878;8.050;2023-07-20T00:56:47;17.50;99.90
35258;DHT22;21385;50.878;8.050;2023-07-20T00:59:13;17.50;99.90
35258;DHT22;21385;50.878;8.050;2023-07-20T01:01:38;17.40;99.90
35258;DHT22;21385;50.878;8.050;2023-07-20T01:04:04;17.30;99.90
35258;DHT22;21385;50.878;8.050;2023-07-20T01:09:20;17.30;99.90
35258;DHT22;21385;50.878;8.050;2023-07-20T01:12:16;17.30;99.90
35258;DHT22;21385;50.878;8.050;2023-07-20T01:14:44;17.20;99.90
35258;DHT22;21385;50.878;8.050;2023-07-20T01:17:10;17.20;99.90
35258;DHT22;21385;50.878;8.050;2023-07-20T01:19:36;17.20;99.90
35258;DHT22;21385;50.878;8.050;2023-07-20T01:25:21;17.10;99.90
35258;DHT22;21385;50.878;8.050;2023-07-20T01:27:57;17.10;99.90
35258;DHT22;21385;50.878;8.050;2023-07-20T01:33:32;16.90;99.90
35258;DHT22;21385;50.878;8.050;2023-07-20T01:35:59;16.90;99.90
35258;DHT22;21385;50.878;8.050;2023-07-20T01:38:25;16.90;99.90
35258;DHT22;21385;50.878;8.050;2023-07-20T01:40:52;16.90;99.90
35258;DHT22;21385;50.878;8.050;2023-07-20T01:43:18;16.90;99.90
35258;DHT22;21385;50.878;8.050;2023-07-20T01:45:44;16.90;99.90
35258;DHT22;21385;50.878;8.050;2023-07-20T01:48:10;16.90;99.90
35258;DHT22;21385;50.878;8.050;2023-07-20T01:50:36;16.80;99.90
35258;DHT22;21385;50.878;8.050;2023-07-20T01:53:01;16.90;99.90
35258;DHT22;21385;50.878;8.050;2023-07-20T01:55:27;16.80;99.90
35258;DHT22;21385;50.878;8.050;2023-07-20T01:57:54;16.80;99.90
35258;DHT22;21385;50.878;8.050;2023-07-20T02:00:20;16.90;99.90
35258;DHT22;21385;50.878;8.050;2023-07-20T02:02:49;16.80;99.90
35258;DHT22;21385;50.878;8.050;2023-07-20T02:05:15;16.80;99.90
35258;DHT22;21385;50.878;8.050;2023-07-20T02:07:40;16.80;99.90
35258;DHT22;21385;50.878;8.050;2023-07-20T02:10:06;16.80;99.90
35258;DHT22;21385;50.878;8.050;2023-07-20T02:12:32;16.80;99.90
35258;DHT22;21385;50.878;8.050;2023-07-20T02:14:57;16.80;99.90
35258;DHT22;21385;50.878;8.050;2023-07-20T02:17:23;16.80;99.90
35258;DHT22;21385;50.878;8.050;2023-07-20T02:19:56;16.80;99.90
35258;DHT22;21385;50.878;8.050;2023-07-20T02:22:23;16.80;99.90
35258;DHT22;21385;50.878;8.050;2023-07-20T02:24:48;16.80;99.90
35258;DHT22;21385;50.878;8.050;2023-07-20T02:27:15;16.80;99.90
35258;DHT22;21385;50.878;8.050;2023-07-20T02:29:41;16.80;99.90
35258;DHT22;21385;50.878;8.050;2023-07-20T02:32:08;16.80;99.90
35258;DHT22;21385;50.878;8.050;2023-07-20T02:34:33;16.80;99.90
35258;DHT22;21385;50.878;8.050;2023-07-20T02:37:00;16.80;99.90
35258;DHT22;21385;50.878;8.050;2023-07-20T02:39:27;16.80;99.90
35258;DHT22;21385;50.878;8.050;2023-07-20T02:41:53;16.80;99.90
35258;DHT22;21385;50.878;8.050;2023-07-20T02:44:19;16.80;99.90
35258;DHT22;21385;50.878;8.050;2023-07-20T02:46:45;16.80;99.90
35258;DHT22;21385;50.878;8.050;2023-07-20T02:49:10;16.80;99.90
35258;DHT22;21385;50.878;8.050;2023-07-20T02:51:36;16.80;99.90
35258;DHT22;21385;50.878;8.050;2023-07-20T02:54:02;16.90;99.90
35258;DHT22;21385;50.878;8.050;2023-07-20T02:56:28;16.90;99.90
35258;DHT22;21385;50.878;8.050;2023-07-20T02:58:54;16.80;99.90
35258;DHT22;21385;50.878;8.050;2023-07-20T03:01:19;16.90;99.90
35258;DHT22;21385;50.878;8.050;2023-07-20T03:03:45;16.90;99.90
35258;DHT22;21385;50.878;8.050;2023-07-20T03:06:15;16.90;99.90
35258;DHT22;21385;50.878;8.050;2023-07-20T03:08:42;16.80;99.90
35258;DHT22;21385;50.878;8.050;2023-07-20T03:11:15;16.80;99.90
35258;DHT22;21385;50.878;8.050;2023-07-20T03:13:42;16.90;99.90
35258;DHT22;21385;50.878;8.050;2023-07-20T03:16:08;16.80;99.90
35258;DHT22;21385;50.878;8.050;2023-07-20T03:18:37;16.80;99.90
35258;DHT22;21385;50.878;8.050;2023-07-20T03:21:04;16.80;99.90
35258;DHT22;21385;50.878;8.050;2023-07-20T03:23:30;16.80;99.90
35258;DHT22;21385;50.878;8.050;2023-07-20T03:25:55;16.80;99.90
35258;DHT22;21385;50.878;8.050;2023-07-20T03:28:21;16.80;99.90
35258;DHT22;21385;50.878;8.050;2023-07-20T03:30:55;16.80;99.90
35258;DHT22;21385;50.878;8.050;2023-07-20T03:33:24;16.80;99.90
35258;DHT22;21385;50.878;8.050;2023-07-20T03:35:50;16.80;99.90
35258;DHT22;21385;50.878;8.050;2023-07-20T03:38:15;16.80;99.90
35258;DHT22;21385;50.878;8.050;2023-07-20T03:40:49;16.80;99.90
35258;DHT22;21385;50.878;8.050;2023-07-20T03:43:15;16.80;99.90
35258;DHT22;21385;50.878;8.050;2023-07-20T03:45:40;16.70;99.90
35258;DHT22;21385;50.878;8.050;2023-07-20T03:48:06;16.70;99.90
35258;DHT22;21385;50.878;8.050;2023-07-20T03:50:32;16.60;99.90
35258;DHT22;21385;50.878;8.050;2023-07-20T03:52:58;16.60;99.90
35258;DHT22;21385;50.878;8.050;2023-07-20T03:55:24;16.60;99.90
35258;DHT22;21385;50.878;8.050;2023-07-20T03:57:49;16.60;99.90
35258;DHT22;21385;50.878;8.050;2023-07-20T04:00:17;16.70;99.90
35258;DHT22;21385;50.878;8.050;2023-07-20T04:02:42;16.70;99.90
35258;DHT22;21385;50.878;8.050;2023-07-20T04:07:34;16.80;99.90
35258;DHT22;21385;50.878;8.050;2023-07-20T04:10:00;17.10;99.90
35258;DHT22;21385;50.878;8.050;2023-07-20T04:12:25;17.20;99.90
35258;DHT22;21385;50.878;8.050;2023-07-20T04:14:51;17.40;99.90
35258;DHT22;21385;50.878;8.050;2023-07-20T04:17:17;17.40;99.90
35258;DHT22;21385;50.878;8.050;2023-07-20T04:19:43;17.50;99.90
35258;DHT22;21385;50.878;8.050;2023-07-20T04:22:08;18.10;99.90
35258;DHT22;21385;50.878;8.050;2023-07-20T04:24:34;18.60;99.90
35258;DHT22;21385;50.878;8.050;2023-07-20T04:29:26;19.10;99.90
35258;DHT22;21385;50.878;8.050;2023-07-20T05:15:41;19.40;99.90
35258;DHT22;21385;50.878;8.050;2023-07-20T05:23:00;19.40;99.90
35258;DHT22;21385;50.878;8.050;2023-07-20T05:25:26;19.10;99.90
35258;DHT22;21385;50.878;8.050;2023-07-20T05:27:52;18.80;99.90
35258;DHT22;21385;50.878;8.050;2023-07-20T05:30:18;18.90;99.90
35258;DHT22;21385;50.878;8.050;2023-07-20T05:32:44;18.90;99.90
35258;DHT22;21385;50.878;8.050;2023-07-20T05:35:17;18.70;99.90
35258;DHT22;21385;50.878;8.050;2023-07-20T05:37:43;18.60;99.90
35258;DHT22;21385;50.878;8.050;2023-07-20T05:40:09;18.40;99.90
35258;DHT22;21385;50.878;8.050;2023-07-20T05:42:37;18.30;99.90
35258;DHT22;21385;50.878;8.050;2023-07-20T05:45:03;18.10;99.90
35258;DHT22;21385;50.878;8.050;2023-07-20T05:47:29;18.10;99.90
35258;DHT22;21385;50.878;8.050;2023-07-20T05:49:55;17.90;99.90
35258;DHT22;21385;50.878;8.050;2023-07-20T05:52:20;17.80;99.90
35258;DHT22;21385;50.878;8.050;2023-07-20T05:54:46;17.80;99.90
35258;DHT22;21385;50.878;8.050;2023-07-20T05:57:11;17.80;99.90
35258;DHT22;21385;50.878;8.050;2023-07-20T05:59:37;17.90;99.90
35258;DHT22;21385;50.878;8.050;2023-07-20T06:02:04;18.00;99.90
35258;DHT22;21385;50.878;8.050;2023-07-20T06:04:29;18.10;99.90
35258;DHT22;21385;50.878;8.050;2023-07-20T06:06:55;18.00;99.90
35258;DHT22;21385;50.878;8.050;2023-07-20T06:09:20;18.00;99.90
35258;DHT22;21385;50.878;8.050;2023-07-20T06:11:46;18.10;99.90
35258;DHT22;21385;50.878;8.050;2023-07-20T06:14:11;17.90;99.90
35258;DHT22;21385;50.878;8.050;2023-07-20T06:16:37;17.80;99.90
35258;DHT22;21385;50.878;8.050;2023-07-20T06:19:03;17.70;99.90
35258;DHT22;21385;50.878;8.050;2023-07-20T06:21:29;17.80;99.90
35258;DHT22;21385;50.878;8.050;2023-07-20T06:23:54;17.80;99.90
35258;DHT22;21385;50.878;8.050;2023-07-20T06:26:20;17.90;99.90
35258;DHT22;21385;50.878;8.050;2023-07-20T06:28:46;17.90;99.90
35258;DHT22;21385;50.878;8.050;2023-07-20T06:31:11;17.90;99.90
35258;DHT22;21385;50.878;8.050;2023-07-20T06:33:37;17.90;99.90
35258;DHT22;21385;50.878;8.050;2023-07-20T06:36:03;17.90;99.90
35258;DHT22;21385;50.878;8.050;2023-07-20T06:38:29;17.90;99.90
35258;DHT22;21385;50.878;8.050;2023-07-20T06:40:55;17.90;99.90
35258;DHT22;21385;50.878;8.050;2023-07-20T06:43:20;17.80;99.90
35258;DHT22;21385;50.878;8.050;2023-07-20T06:45:51;17.80;99.90
35258;DHT22;21385;50.878;8.050;2023-07-20T06:48:19;17.90;99.90
35258;DHT22;21385;50.878;8.050;2023-07-20T06:50:45;17.90;99.90
35258;DHT22;21385;50.878;8.050;2023-07-20T06:53:10;17.90;99.90
35258;DHT22;21385;50.878;8.050;2023-07-20T06:55:36;18.00;99.90
35258;DHT22;21385;50.878;8.050;2023-07-20T06:58:01;17.90;99.90
35258;DHT22;21385;50.878;8.050;2023-07-20T07:00:27;18.00;99.90
35258;DHT22;21385;50.878;8.050;2023-07-20T07:02:52;18.10;99.90
35258;DHT22;21385;50.878;8.050;2023-07-20T07:05:18;18.20;99.90
35258;DHT22;21385;50.878;8.050;2023-07-20T07:07:44;18.40;99.90
35258;DHT22;21385;50.878;8.050;2023-07-20T07:10:09;18.40;99.90
35258;DHT22;21385;50.878;8.050;2023-07-20T07:12:35;18.40;99.90
35258;DHT22;21385;50.878;8.050;2023-07-20T07:15:04;18.40;99.90
35258;DHT22;21385;50.878;8.050;2023-07-20T07:17:33;18.40;99.90
35258;DHT22;21385;50.878;8.050;2023-07-20T07:19:58;18.50;99.90
35258;DHT22;21385;50.878;8.050;2023-07-20T07:22:24;18.50;99.90
35258;DHT22;21385;50.878;8.050;2023-07-20T07:24:50;18.50;99.90
35258;DHT22;21385;50.878;8.050;2023-07-20T07:27:16;18.40;99.90
35258;DHT22;21385;50.878;8.050;2023-07-20T07:29:42;18.40;99.90
35258;DHT22;21385;50.878;8.050;2023-07-20T07:32:11;18.50;99.90
35258;DHT22;21385;50.878;8.050;2023-07-20T07:34:37;18.60;99.90
35258;DHT22;21385;50.878;8.050;2023-07-20T07:37:06;18.70;99.90
35258;DHT22;21385;50.878;8.050;2023-07-20T07:39:31;18.90;99.90
35258;DHT22;21385;50.878;8.050;2023-07-20T07:41:57;18.90;99.90
35258;DHT22;21385;50.878;8.050;2023-07-20T07:44:23;19.00;99.90
35258;DHT22;21385;50.878;8.050;2023-07-20T07:46:49;19.10;99.90
35258;DHT22;21385;50.878;8.050;2023-07-20T07:49:16;19.10;99.90
35258;DHT22;21385;50.878;8.050;2023-07-20T07:51:42;19.20;99.90
35258;DHT22;21385;50.878;8.050;2023-07-20T07:54:07;19.20;99.90
35258;DHT22;21385;50.878;8.050;2023-07-20T07:56:33;19.20;99.90
35258;DHT22;21385;50.878;8.050;2023-07-20T07:58:58;19.10;99.90
35258;DHT22;21385;50.878;8.050;2023-07-20T08:01:24;19.30;99.90
35258;DHT22;21385;50.878;8.050;2023-07-20T08:03:49;19.50;99.90
35258;DHT22;21385;50.878;8.050;2023-07-20T08:06:16;19.70;99.90
35258;DHT22;21385;50.878;8.050;2023-07-20T08:08:42;19.80;99.90
35258;DHT22;21385;50.878;8.050;2023-07-20T08:13:35;19.70;99.90
35258;DHT22;21385;50.878;8.050;2023-07-20T08:16:01;19.60;99.90
35258;DHT22;21385;50.878;8.050;2023-07-20T08:18:28;19.50;99.90
35258;DHT22;21385;50.878;8.050;2023-07-20T08:23:19;19.60;99.90
35258;DHT22;21385;50.878;8.050;2023-07-20T08:25:45;19.50;99.90
35258;DHT22;21385;50.878;8.050;2023-07-20T08:28:13;19.40;99.90
35258;DHT22;21385;50.878;8.050;2023-07-20T08:30:46;19.40;99.90
35258;DHT22;21385;50.878;8.050;2023-07-20T08:33:17;19.50;99.90
35258;DHT22;21385;50.878;8.050;2023-07-20T08:35:45;19.30;99.90
35258;DHT22;21385;50.878;8.050;2023-07-20T08:43:06;19.50;99.90
35258;DHT22;21385;50.878;8.050;2023-07-20T08:45:36;19.40;99.90
35258;DHT22;21385;50.878;8.050;2023-07-20T08:48:05;19.60;99.90
35258;DHT22;21385;50.878;8.050;2023-07-20T08:50:31;19.80;99.90
35258;DHT22;21385;50.878;8.050;2023-07-20T08:52:58;20.00;99.90
35258;DHT22;21385;50.878;8.050;2023-07-20T08:55:28;20.30;99.90
35258;DHT22;21385;50.878;8.050;2023-07-20T08:57:54;20.30;99.90
35258;DHT22;21385;50.878;8.050;2023-07-20T09:00:21;20.20;99.90
35258;DHT22;21385;50.878;8.050;2023-07-20T09:02:50;19.90;99.90
35258;DHT22;21385;50.878;8.050;2023-07-20T09:05:17;19.80;99.90
35258;DHT22;21385;50.878;8.050;2023-07-20T09:07:43;19.90;99.90
35258;DHT22;21385;50.878;8.050;2023-07-20T09:10:08;20.10;99.90
35258;DHT22;21385;50.878;8.050;2023-07-20T09:17:35;20.60;99.90
35258;DHT22;21385;50.878;8.050;2023-07-20T09:22:33;20.60;99.90
35258;DHT22;21385;50.878;8.050;2023-07-20T09:24:59;20.60;99.90
35258;DHT22;21385;50.878;8.050;2023-07-20T09:27:37;20.80;99.90
35258;DHT22;21385;50.878;8.050;2023-07-20T09:30:03;21.00;99.90
35258;DHT22;21385;50.878;8.050;2023-07-20T09:32:29;21.30;99.90
35258;DHT22;21385;50.878;8.050;2023-07-20T09:34:55;21.50;99.90
35258;DHT22;21385;50.878;8.050;2023-07-20T09:37:21;21.60;98.60
35258;DHT22;21385;50.878;8.050;2023-07-20T09:39:52;21.60;98.60
35258;DHT22;21385;50.878;8.050;2023-07-20T09:42:22;21.50;99.00
35258;DHT22;21385;50.878;8.050;2023-07-20T09:44:48;21.40;99.60
35258;DHT22;21385;50.878;8.050;2023-07-20T09:47:21;21.10;99.90
35258;DHT22;21385;50.878;8.050;2023-07-20T09:52:13;21.00;99.90
35258;DHT22;21385;50.878;8.050;2023-07-20T09:54:40;20.90;99.90
35258;DHT22;21385;50.878;8.050;2023-07-20T09:57:09;20.90;99.90
35258;DHT22;21385;50.878;8.050;2023-07-20T09:59:35;21.00;99.90
35258;DHT22;21385;50.878;8.050;2023-07-20T10:02:05;21.10;99.90
35258;DHT22;21385;50.878;8.050;2023-07-20T10:04:36;21.20;99.90
35258;DHT22;21385;50.878;8.050;2023-07-20T10:07:04;21.30;99.90
35258;DHT22;21385;50.878;8.050;2023-07-20T10:09:31;21.30;98.90
35258;DHT22;21385;50.878;8.050;2023-07-20T10:11:59;21.30;98.40
35258;DHT22;21385;50.878;8.050;2023-07-20T10:14:28;21.20;97.40
35258;DHT22;21385;50.878;8.050;2023-07-20T10:16:58;21.00;98.60
35258;DHT22;21385;50.878;8.050;2023-07-20T10:22:12;20.80;99.90
35258;DHT22;21385;50.878;8.050;2023-07-20T10:24:38;20.90;99.90
35258;DHT22;21385;50.878;8.050;2023-07-20T10:27:04;21.10;99.90
35258;DHT22;21385;50.878;8.050;2023-07-20T10:29:30;21.40;99.90
35258;DHT22;21385;50.878;8.050;2023-07-20T10:31:57;21.70;99.90
35258;DHT22;21385;50.878;8.050;2023-07-20T10:34:23;21.90;99.90
35258;DHT22;21385;50.878;8.050;2023-07-20T10:36:49;22.30;99.90
35258;DHT22;21385;50.878;8.050;2023-07-20T10:39:27;22.40;98.40
35258;DHT22;21385;50.878;8.050;2023-07-20T10:42:09;22.40;98.30
35258;DHT22;21385;50.878;8.050;2023-07-20T10:44:41;22.50;98.40
35258;DHT22;21385;50.878;8.050;2023-07-20T10:47:12;22.60;99.00
35258;DHT22;21385;50.878;8.050;2023-07-20T10:49:57;22.80;99.80
35258;DHT22;21385;50.878;8.050;2023-07-20T10:52:23;23.20;97.40
35258;DHT22;21385;50.878;8.050;2023-07-20T10:54:48;23.30;95.70
35258;DHT22;21385;50.878;8.050;2023-07-20T10:57:31;23.40;96.70
35258;DHT22;21385;50.878;8.050;2023-07-20T11:00:11;23.60;97.60
35258;DHT22;21385;50.878;8.050;2023-07-20T11:02:45;24.00;95.70
35258;DHT22;21385;50.878;8.050;2023-07-20T11:05:36;24.20;94.20
35258;DHT22;21385;50.878;8.050;2023-07-20T11:08:38;24.20;92.80
35258;DHT22;21385;50.878;8.050;2023-07-20T11:11:26;24.10;91.70
35258;DHT22;21385;50.878;8.050;2023-07-20T11:18:59;23.30;91.60
35258;DHT22;21385;50.878;8.050;2023-07-20T11:21:24;23.10;92.10
35258;DHT22;21385;50.878;8.050;2023-07-20T11:23:52;22.80;92.10
35258;DHT22;21385;50.878;8.050;2023-07-20T11:26:18;22.60;93.20
35258;DHT22;21385;50.878;8.050;2023-07-20T11:28:49;22.50;93.10
35258;DHT22;21385;50.878;8.050;2023-07-20T11:31:15;22.40;92.70
35258;DHT22;21385;50.878;8.050;2023-07-20T11:33:43;22.50;93.10
35258;DHT22;21385;50.878;8.050;2023-07-20T11:36:09;22.80;91.90
35258;DHT22;21385;50.878;8.050;2023-07-20T11:38:34;23.40;92.70
35258;DHT22;21385;50.878;8.050;2023-07-20T11:41:02;23.70;92.70
35258;DHT22;21385;50.878;8.050;2023-07-20T11:43:27;23.80;93.10
35258;DHT22;21385;50.878;8.050;2023-07-20T11:45:53;23.80;93.20
35258;DHT22;21385;50.878;8.050;2023-07-20T11:48:19;23.90;93.40
35258;DHT22;21385;50.878;8.050;2023-07-20T11:50:44;23.90;93.00
35258;DHT22;21385;50.878;8.050;2023-07-20T11:53:10;23.90;93.60
35258;DHT22;21385;50.878;8.050;2023-07-20T11:55:38;24.10;93.70
35258;DHT22;21385;50.878;8.050;2023-07-20T11:58:08;24.50;93.10
35258;DHT22;21385;50.878;8.050;2023-07-20T12:00:35;24.80;92.00
35258;DHT22;21385;50.878;8.050;2023-07-20T12:03:01;24.90;90.80
35258;DHT22;21385;50.878;8.050;2023-07-20T12:05:27;24.60;90.40
35258;DHT22;21385;50.878;8.050;2023-07-20T12:10:26;23.80;89.30
35258;DHT22;21385;50.878;8.050;2023-07-20T12:12:52;23.70;90.00
35258;DHT22;21385;50.878;8.050;2023-07-20T12:15:25;23.50;90.80
35258;DHT22;21385;50.878;8.050;2023-07-20T12:17:53;23.40;91.30
35258;DHT22;21385;50.878;8.050;2023-07-20T12:23:05;22.90;91.00
35258;DHT22;21385;50.878;8.050;2023-07-20T12:28:19;22.80;90.80
35258;DHT22;21385;50.878;8.050;2023-07-20T12:30:46;22.60;90.90
35258;DHT22;21385;50.878;8.050;2023-07-20T12:33:12;22.40;91.30
35258;DHT22;21385;50.878;8.050;2023-07-20T12:35:41;22.30;91.40
35258;DHT22;21385;50.878;8.050;2023-07-20T12:38:06;22.20;91.60
35258;DHT22;21385;50.878;8.050;2023-07-20T12:42:58;22.10;90.90
35258;DHT22;21385;50.878;8.050;2023-07-20T12:45:24;22.10;91.10
35258;DHT22;21385;50.878;8.050;2023-07-20T12:47:49;22.20;91.10
35258;DHT22;21385;50.878;8.050;2023-07-20T12:50:15;22.20;90.60
35258;DHT22;21385;50.878;8.050;2023-07-20T12:52:41;22.30;90.80
35258;DHT22;21385;50.878;8.050;2023-07-20T12:55:08;22.30;91.00
35258;DHT22;21385;50.878;8.050;2023-07-20T12:57:35;22.40;90.60
35258;DHT22;21385;50.878;8.050;2023-07-20T13:00:02;22.40;91.20
35258;DHT22;21385;50.878;8.050;2023-07-20T13:02:30;22.50;90.60
35258;DHT22;21385;50.878;8.050;2023-07-20T13:04:56;22.70;90.10
35258;DHT22;21385;50.878;8.050;2023-07-20T13:07:36;22.80;89.60
35258;DHT22;21385;50.878;8.050;2023-07-20T13:10:03;23.10;87.30
35258;DHT22;21385;50.878;8.050;2023-07-20T13:12:30;23.50;90.00
35258;DHT22;21385;50.878;8.050;2023-07-20T13:14:57;24.00;87.00
35258;DHT22;21385;50.878;8.050;2023-07-20T13:17:26;24.60;92.40
35258;DHT22;21385;50.878;8.050;2023-07-20T13:19:52;24.70;96.40
35258;DHT22;21385;50.878;8.050;2023-07-20T13:22:18;24.40;80.40
35258;DHT22;21385;50.878;8.050;2023-07-20T13:24:45;24.00;80.60
35258;DHT22;21385;50.878;8.050;2023-07-20T13:27:14;23.80;83.80
35258;DHT22;21385;50.878;8.050;2023-07-20T13:29:40;23.80;83.10
35258;DHT22;21385;50.878;8.050;2023-07-20T13:32:07;23.90;83.60
35258;DHT22;21385;50.878;8.050;2023-07-20T13:34:33;24.00;81.40
35258;DHT22;21385;50.878;8.050;2023-07-20T13:36:59;24.20;77.70
35258;DHT22;21385;50.878;8.050;2023-07-20T13:39:25;24.30;76.80
35258;DHT22;21385;50.878;8.050;2023-07-20T13:41:52;24.10;76.40
35258;DHT22;21385;50.878;8.050;2023-07-20T13:44:19;24.10;79.10
35258;DHT22;21385;50.878;8.050;2023-07-20T13:46:46;24.20;80.00
35258;DHT22;21385;50.878;8.050;2023-07-20T13:49:11;24.30;78.20
35258;DHT22;21385;50.878;8.050;2023-07-20T13:51:37;24.30;78.90
35258;DHT22;21385;50.878;8.050;2023-07-20T13:54:03;24.60;79.70
35258;DHT22;21385;50.878;8.050;2023-07-20T13:56:29;24.90;79.90
35258;DHT22;21385;50.878;8.050;2023-07-20T13:58:54;25.40;77.70
35258;DHT22;21385;50.878;8.050;2023-07-20T14:01:20;25.70;76.80
35258;DHT22;21385;50.878;8.050;2023-07-20T14:03:48;26.20;72.40
35258;DHT22;21385;50.878;8.050;2023-07-20T14:06:14;26.30;67.70
35258;DHT22;21385;50.878;8.050;2023-07-20T14:08:40;26.50;70.60
35258;DHT22;21385;50.878;8.050;2023-07-20T14:11:07;26.70;69.30
35258;DHT22;21385;50.878;8.050;2023-07-20T14:13:32;26.90;69.10
35258;DHT22;21385;50.878;8.050;2023-07-20T14:15:58;26.90;68.10
35258;DHT22;21385;50.878;8.050;2023-07-20T14:18:24;26.90;65.90
35258;DHT22;21385;50.878;8.050;2023-07-20T14:20:49;26.80;65.00
35258;DHT22;21385;50.878;8.050;2023-07-20T14:23:15;26.50;67.30
35258;DHT22;21385;50.878;8.050;2023-07-20T14:25:40;26.50;66.90
35258;DHT22;21385;50.878;8.050;2023-07-20T14:28:07;26.30;68.00
35258;DHT22;21385;50.878;8.050;2023-07-20T14:30:33;26.10;68.30
35258;DHT22;21385;50.878;8.050;2023-07-20T14:32:59;25.90;70.00
35258;DHT22;21385;50.878;8.050;2023-07-20T14:35:24;25.80;68.90
35258;DHT22;21385;50.878;8.050;2023-07-20T14:37:50;26.00;67.80
35258;DHT22;21385;50.878;8.050;2023-07-20T14:40:15;26.10;67.10
35258;DHT22;21385;50.878;8.050;2023-07-20T14:42:41;26.40;69.60
35258;DHT22;21385;50.878;8.050;2023-07-20T14:45:07;26.80;66.30
35258;DHT22;21385;50.878;8.050;2023-07-20T14:47:33;27.10;66.50
35258;DHT22;21385;50.878;8.050;2023-07-20T14:50:01;27.40;63.60
35258;DHT22;21385;50.878;8.050;2023-07-20T14:52:28;27.50;61.10
35258;DHT22;21385;50.878;8.050;2023-07-20T14:54:54;27.10;58.10
35258;DHT22;21385;50.878;8.050;2023-07-20T14:57:19;26.60;58.00
35258;DHT22;21385;50.878;8.050;2023-07-20T14:59:47;26.50;61.80
35258;DHT22;21385;50.878;8.050;2023-07-20T15:02:12;26.40;65.40
35258;DHT22;21385;50.878;8.050;2023-07-20T15:04:49;26.20;66.10
35258;DHT22;21385;50.878;8.050;2023-07-20T15:07:21;26.00;66.00
35258;DHT22;21385;50.878;8.050;2023-07-20T15:09:47;25.80;67.00
35258;DHT22;21385;50.878;8.050;2023-07-20T15:12:13;25.60;66.80
35258;DHT22;21385;50.878;8.050;2023-07-20T15:14:40;25.60;67.60
35258;DHT22;21385;50.878;8.050;2023-07-20T15:17:07;25.60;68.20
35258;DHT22;21385;50.878;8.050;2023-07-20T15:19:33;25.70;67.90
35258;DHT22;21385;50.878;8.050;2023-07-20T15:21:59;26.00;67.80
35258;DHT22;21385;50.878;8.050;2023-07-20T15:24:25;26.20;65.10
35258;DHT22;21385;50.878;8.050;2023-07-20T15:26:51;26.40;63.70
35258;DHT22;21385;50.878;8.050;2023-07-20T15:29:16;26.60;63.90
35258;DHT22;21385;50.878;8.050;2023-07-20T15:31:42;26.50;64.30
35258;DHT22;21385;50.878;8.050;2023-07-20T15:34:07;26.60;63.30
35258;DHT22;21385;50.878;8.050;2023-07-20T15:36:33;26.60;61.50
35258;DHT22;21385;50.878;8.050;2023-07-20T15:38:58;26.60;63.40
35258;DHT22;21385;50.878;8.050;2023-07-20T15:41:24;26.70;63.50
35258;DHT22;21385;50.878;8.050;2023-07-20T15:43:49;26.70;63.50
35258;DHT22;21385;50.878;8.050;2023-07-20T15:48:47;26.90;63.70
35258;DHT22;21385;50.878;8.050;2023-07-20T15:51:12;27.00;64.80
35258;DHT22;21385;50.878;8.050;2023-07-20T15:53:39;27.00;64.60
35258;DHT22;21385;50.878;8.050;2023-07-20T15:56:05;26.90;62.00
35258;DHT22;21385;50.878;8.050;2023-07-20T15:58:31;26.70;60.90
35258;DHT22;21385;50.878;8.050;2023-07-20T16:00:58;26.50;61.20
35258;DHT22;21385;50.878;8.050;2023-07-20T16:03:23;26.40;58.80
35258;DHT22;21385;50.878;8.050;2023-07-20T16:05:55;26.40;57.50
35258;DHT22;21385;50.878;8.050;2023-07-20T16:08:20;26.30;56.60
35258;DHT22;21385;50.878;8.050;2023-07-20T16:10:46;26.40;56.90
35258;DHT22;21385;50.878;8.050;2023-07-20T16:13:11;26.50;56.30
35258;DHT22;21385;50.878;8.050;2023-07-20T16:15:37;26.60;56.80
35258;DHT22;21385;50.878;8.050;2023-07-20T16:18:03;26.60;56.30
35258;DHT22;21385;50.878;8.050;2023-07-20T16:20:28;26.70;56.40
35258;DHT22;21385;50.878;8.050;2023-07-20T16:22:54;26.60;56.10
35258;DHT22;21385;50.878;8.050;2023-07-20T16:25:20;26.70;57.30
35258;DHT22;21385;50.878;8.050;2023-07-20T16:27:45;27.00;55.30
35258;DHT22;21385;50.878;8.050;2023-07-20T16:30:11;27.00;55.70
35258;DHT22;21385;50.878;8.050;2023-07-20T16:32:40;27.10;54.40
35258;DHT22;21385;50.878;8.050;2023-07-20T16:35:09;27.00;54.40
35258;DHT22;21385;50.878;8.050;2023-07-20T16:37:35;26.90;55.10
35258;DHT22;21385;50.878;8.050;2023-07-20T16:40:00;26.80;54.20
35258;DHT22;21385;50.878;8.050;2023-07-20T16:42:26;26.80;55.90
35258;DHT22;21385;50.878;8.050;2023-07-20T16:44:52;26.80;53.90
35258;DHT22;21385;50.878;8.050;2023-07-20T16:47:19;26.70;55.60
35258;DHT22;21385;50.878;8.050;2023-07-20T16:49:47;26.60;55.10
35258;DHT22;21385;50.878;8.050;2023-07-20T16:52:14;26.60;55.40
35258;DHT22;21385;50.878;8.050;2023-07-20T16:54:39;26.80;55.20
35258;DHT22;21385;50.878;8.050;2023-07-20T16:57:05;26.90;53.90
35258;DHT22;21385;50.878;8.050;2023-07-20T16:59:31;26.80;53.80
35258;DHT22;21385;50.878;8.050;2023-07-20T17:01:57;26.70;53.30
35258;DHT22;21385;50.878;8.050;2023-07-20T17:04:22;26.60;54.90
35258;DHT22;21385;50.878;8.050;2023-07-20T17:06:48;26.40;54.00
35258;DHT22;21385;50.878;8.050;2023-07-20T17:09:14;26.40;54.50
35258;DHT22;21385;50.878;8.050;2023-07-20T17:11:40;26.40;55.20